Time;durP1;ratioP1;P1;durP2;ratioP2;P2;SDS_P1;SDS_P2;PMS_P1;PMS_P2;Temp;Humidity;BMP_temperature;BMP_pressure;BME280_temperature;BME280_humidity;BME280_pressure;Samples;Min_cycle;Max_cycle;Signal;HPM_P1;HPM_P2
2022/02/11 00:08:49;;;;;;;;;;;;;;;-0.50;77.97;99914.22;5093921;28;20321;-71
2022/02/11 00:11:15;;;;;;;;;;;;;;;-0.62;78.48;99915.09;5094117;28;19916;-71
2022/02/11 00:13:40;;;;;;;;;;;;;;;-0.75;78.92;99909.09;5092547;28;20355;-74
2022/02/11 00:16:05;;;;;;;;;;;;;;;-0.82;78.96;99913.13;5075295;28;19960;-71
2022/02/11 00:18:31;;;;;;;;;;;;;;;-0.85;79.40;99913.34;5092090;28;20386;-71
2022/02/11 00:20:56;;;;;;;;;;;;;;;-0.91;79.13;99911.13;5073725;28;19916;-69
2022/02/11 00:23:22;;;;;;;;;;;;;;;-0.97;79.51;99910.63;5092145;28;19916;-71
2022/02/11 00:25:57;;;;;;;;;;;;;;;-1.08;79.60;99907.97;5092162;28;20290;-70
2022/02/11 00:33:50;;;;;;;;;;;;;;;-1.29;80.99;99909.47;5092171;28;19916;-70
2022/02/11 00:36:17;;;;;;;;;;;;;;;-1.21;80.93;99907.16;5091987;28;19916;-69
2022/02/11 00:39:20;;;;;;;;;;;;;;;-1.07;80.66;99912.25;5091834;28;19920;-70
2022/02/11 01:04:03;;;;;;;;;;;;;;;-0.56;79.49;99898.97;5053917;28;20291;-70
2022/02/11 01:06:29;;;;;;;;;;;;;;;-0.57;79.56;99907.78;5103771;28;19916;-70
2022/02/11 01:08:55;;;;;;;;;;;;;;;-0.60;79.70;99904.50;5100756;28;19951;-71
2022/02/11 01:11:31;;;;;;;;;;;;;;;-0.64;79.77;99898.69;5095378;28;19924;-70
2022/02/11 01:13:56;;;;;;;;;;;;;;;-0.66;79.59;99898.78;5100205;28;20011;-70
2022/02/11 01:16:29;;;;;;;;;;;;;;;-0.65;79.91;99899.63;5097480;28;19920;-70
2022/02/11 01:19:18;;;;;;;;;;;;;;;-0.66;79.90;99901.41;5096984;28;19969;-69
2022/02/11 01:21:58;;;;;;;;;;;;;;;-0.66;80.09;99897.97;5095198;28;19989;-70
2022/02/11 01:27:52;;;;;;;;;;;;;;;-0.68;80.29;99899.84;5076697;28;20356;-70
2022/02/11 01:32:34;;;;;;;;;;;;;;;-0.71;80.25;99913.16;5095061;28;19961;-70
2022/02/11 02:01:36;;;;;;;;;;;;;;;-0.68;80.85;99910.31;5075646;28;19916;-69
2022/02/11 02:22:02;;;;;;;;;;;;;;;-0.28;79.99;99931.78;5094038;28;20405;-69
2022/02/11 02:38:21;;;;;;;;;;;;;;;-0.27;79.32;99941.28;5093193;28;19924;-69
2022/02/11 02:57:49;;;;;;;;;;;;;;;-0.35;79.29;99949.69;5093125;28;20406;-72
2022/02/11 04:28:08;;;;;;;;;;;;;;;-0.09;78.27;99981.78;5096204;28;20349;-71
2022/02/11 04:57:04;;;;;;;;;;;;;;;-0.16;78.20;99990.22;5095260;28;20325;-71
2022/02/11 04:59:38;;;;;;;;;;;;;;;-0.21;78.51;99993.16;5095299;28;19923;-73
2022/02/11 05:02:07;;;;;;;;;;;;;;;-0.47;78.76;99965.47;5096217;28;19943;-72
2022/02/11 05:04:33;;;;;;;;;;;;;;;-0.37;79.20;99998.69;5096493;28;19922;-72
2022/02/11 05:07:00;;;;;;;;;;;;;;;-0.37;78.81;100000.47;5100491;28;19916;-70
2022/02/11 05:09:26;;;;;;;;;;;;;;;-0.34;78.90;99998.44;5101576;28;20005;-73
2022/02/11 05:11:51;;;;;;;;;;;;;;;-0.37;78.91;99993.44;5102450;28;19916;-67
2022/02/11 05:14:17;;;;;;;;;;;;;;;-0.43;79.42;99999.13;5077461;28;20378;-74
2022/02/11 05:16:43;;;;;;;;;;;;;;;-0.44;79.51;100012.31;5096103;28;19982;-75
2022/02/11 05:19:08;;;;;;;;;;;;;;;-0.43;79.27;100014.00;5095243;28;19961;-73
2022/02/11 05:21:34;;;;;;;;;;;;;;;-0.39;79.50;100013.66;5095462;28;19916;-70
2022/02/11 05:23:59;;;;;;;;;;;;;;;-0.39;79.21;100015.44;5094196;28;19922;-67
2022/02/11 05:26:25;;;;;;;;;;;;;;;-0.41;79.42;100012.94;5094980;28;19915;-73
2022/02/11 05:28:50;;;;;;;;;;;;;;;-0.42;79.47;100008.66;5093197;28;20301;-75
2022/02/11 05:31:15;;;;;;;;;;;;;;;-0.34;79.36;100013.31;5094328;28;20052;-73
2022/02/11 05:33:41;;;;;;;;;;;;;;;-0.29;79.30;100016.44;5075528;28;19942;-69
2022/02/11 05:36:06;;;;;;;;;;;;;;;-0.29;79.13;100015.59;5076660;28;20271;-66
2022/02/11 05:38:32;;;;;;;;;;;;;;;-0.25;79.37;100014.44;5076716;28;19920;-74
2022/02/11 05:40:58;;;;;;;;;;;;;;;-0.21;79.54;100024.56;5076303;28;20431;-63
2022/02/11 05:43:24;;;;;;;;;;;;;;;-0.22;79.15;100027.31;5094423;28;19978;-64
2022/02/11 05:45:49;;;;;;;;;;;;;;;-0.28;79.39;100027.75;5094511;28;20379;-68
2022/02/11 05:48:14;;;;;;;;;;;;;;;-0.28;79.56;100023.34;5094890;28;19916;-68
2022/02/11 05:50:40;;;;;;;;;;;;;;;-0.22;79.51;100025.53;5094510;28;19927;-69
2022/02/11 05:53:05;;;;;;;;;;;;;;;-0.16;79.54;100029.47;5094878;28;20383;-71
2022/02/11 05:55:31;;;;;;;;;;;;;;;-0.13;79.40;100031.84;5092827;28;19916;-66
2022/02/11 05:57:57;;;;;;;;;;;;;;;-0.13;79.05;100031.84;5094156;28;19916;-69
2022/02/11 06:00:22;;;;;;;;;;;;;;;-0.06;79.10;100033.91;5093909;28;19920;-66
2022/02/11 06:02:48;;;;;;;;;;;;;;;-0.01;78.57;100036.19;5075904;28;19920;-68
2022/02/11 06:05:16;;;;;;;;;;;;;;;0.04;78.77;100041.94;5094419;28;19961;-69
2022/02/11 06:07:42;;;;;;;;;;;;;;;0.09;78.31;100034.56;5094908;28;19941;-67
2022/02/11 06:10:07;;;;;;;;;;;;;;;0.14;78.22;100037.69;5077282;28;19916;-64
2022/02/11 06:12:32;;;;;;;;;;;;;;;0.18;78.37;100041.72;5093425;28;20318;-67
2022/02/11 06:14:58;;;;;;;;;;;;;;;0.13;78.38;100041.25;5093608;28;20381;-69
2022/02/11 06:17:23;;;;;;;;;;;;;;;0.14;78.44;100036.84;5093723;28;19959;-77
2022/02/11 06:19:49;;;;;;;;;;;;;;;0.13;78.74;100038.63;5093935;28;19923;-70
2022/02/11 06:22:16;;;;;;;;;;;;;;;0.17;78.70;100045.31;5093397;28;19923;-73
2022/02/11 06:24:42;;;;;;;;;;;;;;;0.20;78.44;100041.63;5093463;28;19923;-72
2022/02/11 06:27:08;;;;;;;;;;;;;;;0.17;78.03;100040.06;5093677;28;19977;-67
2022/02/11 06:29:35;;;;;;;;;;;;;;;0.15;77.88;100036.72;5093297;28;19959;-69
2022/02/11 06:32:01;;;;;;;;;;;;;;;0.10;77.96;100043.25;5075789;28;19915;-68
2022/02/11 06:34:27;;;;;;;;;;;;;;;0.05;78.22;100055.84;5075720;28;19969;-65
2022/02/11 06:36:52;;;;;;;;;;;;;;;0.07;78.23;100065.28;5093332;28;19923;-67
2022/02/11 06:39:21;;;;;;;;;;;;;;;0.16;78.11;100068.97;5093338;28;19927;-69
2022/02/11 06:42:12;;;;;;;;;;;;;;;0.15;78.20;100078.63;5093995;28;20334;-77
2022/02/11 06:44:38;;;;;;;;;;;;;;;0.13;78.01;100075.28;5094293;28;19920;-69
2022/02/11 06:47:03;;;;;;;;;;;;;;;0.12;77.75;100078.84;5093587;28;19919;-73
2022/02/11 06:49:28;;;;;;;;;;;;;;;0.16;77.76;100075.06;5075015;28;20383;-68
2022/02/11 06:51:54;;;;;;;;;;;;;;;0.20;77.74;100080.91;5093277;28;20391;-68
2022/02/11 06:54:20;;;;;;;;;;;;;;;0.17;77.61;100074.09;5075556;28;19916;-72
2022/02/11 06:56:45;;;;;;;;;;;;;;;0.24;77.81;100077.09;5103467;28;19916;-72
2022/02/11 06:59:10;;;;;;;;;;;;;;;0.24;77.25;100088.41;5091291;28;20005;-70
2022/02/11 07:01:36;;;;;;;;;;;;;;;0.25;77.11;100076.16;5094856;28;19986;-67
2022/02/11 07:04:02;;;;;;;;;;;;;;;0.24;76.81;100083.16;5094078;28;19920;-67
2022/02/11 07:06:28;;;;;;;;;;;;;;;0.24;76.85;100080.56;5094187;28;19922;-75
2022/02/11 07:08:55;;;;;;;;;;;;;;;0.20;77.24;100084.34;5075176;28;19984;-70
2022/02/11 07:11:20;;;;;;;;;;;;;;;0.24;77.52;100083.16;5092714;28;19960;-63
2022/02/11 07:13:45;;;;;;;;;;;;;;;0.26;77.54;100089.13;5093028;28;19915;-65
2022/02/11 07:16:11;;;;;;;;;;;;;;;0.33;77.19;100091.31;5092859;28;19923;-62
2022/02/11 07:18:36;;;;;;;;;;;;;;;0.40;77.43;100089.91;5092782;28;20058;-70
2022/02/11 07:21:01;;;;;;;;;;;;;;;0.42;76.70;100096.69;5092803;28;19927;-74
2022/02/11 07:23:27;;;;;;;;;;;;;;;0.48;76.87;100092.78;5092414;28;19930;-72
2022/02/11 07:25:52;;;;;;;;;;;;;;;0.48;76.84;100095.41;5092290;28;20064;-72
2022/02/11 07:28:20;;;;;;;;;;;;;;;0.41;76.17;100104.69;5092615;28;19924;-69
2022/02/11 07:30:48;;;;;;;;;;;;;;;0.41;76.44;100102.06;5092647;28;19959;-70
2022/02/11 07:33:17;;;;;;;;;;;;;;;0.49;76.26;100097.91;5074088;28;20288;-71
2022/02/11 07:35:46;;;;;;;;;;;;;;;0.60;76.28;100104.97;5056577;28;19920;-72
2022/02/11 07:38:11;;;;;;;;;;;;;;;0.64;75.68;100106.41;5090186;28;19961;-71
2022/02/11 07:40:39;;;;;;;;;;;;;;;0.64;75.25;100105.59;5072698;28;20006;-73
2022/02/11 07:43:22;;;;;;;;;;;;;;;0.65;75.84;100108.09;5075444;28;19926;-74
2022/02/11 07:45:48;;;;;;;;;;;;;;;0.72;76.54;100106.66;5071920;28;20260;-72
2022/02/11 07:48:14;;;;;;;;;;;;;;;0.74;75.52;100106.56;5072849;28;19938;-73
2022/02/11 07:50:39;;;;;;;;;;;;;;;0.80;76.11;100122.66;5091276;28;19951;-73
2022/02/11 07:53:14;;;;;;;;;;;;;;;1.07;75.15;100116.25;5072817;28;19973;-71
2022/02/11 07:55:42;;;;;;;;;;;;;;;1.10;74.85;100113.38;5074253;28;19923;-73
2022/02/11 07:58:20;;;;;;;;;;;;;;;1.07;74.27;100122.34;5077091;28;20275;-73
2022/02/11 08:00:48;;;;;;;;;;;;;;;1.00;74.40;100115.06;5094419;28;20357;-73
2022/02/11 08:03:23;;;;;;;;;;;;;;;0.97;75.24;100118.75;5075713;28;19922;-72
2022/02/11 08:05:53;;;;;;;;;;;;;;;1.00;75.08;100123.75;5095231;28;20398;-71
2022/02/11 08:08:20;;;;;;;;;;;;;;;1.06;75.08;100125.06;5094438;28;19923;-73
2022/02/11 08:10:46;;;;;;;;;;;;;;;1.06;74.86;100132.94;5095012;28;20336;-69
2022/02/11 08:13:12;;;;;;;;;;;;;;;1.16;75.27;100126.06;5094970;28;19916;-68
2022/02/11 08:15:40;;;;;;;;;;;;;;;1.20;74.77;100140.59;5076185;28;19916;-71
2022/02/11 08:18:06;;;;;;;;;;;;;;;1.24;74.32;100134.16;5077390;28;20010;-69
2022/02/11 08:20:45;;;;;;;;;;;;;;;1.19;74.10;100131.06;5077580;28;19943;-70
2022/02/11 08:23:11;;;;;;;;;;;;;;;1.05;73.99;100126.84;5094998;28;19961;-71
2022/02/11 08:25:37;;;;;;;;;;;;;;;0.97;74.38;100128.41;5076507;28;20014;-69
2022/02/11 08:28:05;;;;;;;;;;;;;;;1.00;74.73;100123.75;5076705;28;19916;-73
2022/02/11 08:30:31;;;;;;;;;;;;;;;1.02;75.19;100128.88;5077485;28;19916;-66
2022/02/11 08:32:56;;;;;;;;;;;;;;;1.06;74.65;100128.53;5077694;28;19923;-69
2022/02/11 08:35:22;;;;;;;;;;;;;;;1.13;74.44;100137.59;5077379;28;20352;-66
2022/02/11 08:37:47;;;;;;;;;;;;;;;1.09;74.04;100140.56;5077087;28;19916;-66
2022/02/11 08:40:17;;;;;;;;;;;;;;;1.16;74.13;100139.16;5076939;28;19962;-71
2022/02/11 08:42:55;;;;;;;;;;;;;;;1.25;74.08;100146.31;5093561;28;20310;-72
2022/02/11 08:45:24;;;;;;;;;;;;;;;1.18;73.68;100142.50;5095146;28;20319;-66
2022/02/11 08:47:50;;;;;;;;;;;;;;;1.13;73.56;100150.69;5076695;28;20336;-70
2022/02/11 08:50:20;;;;;;;;;;;;;;;1.21;73.73;100165.88;5093632;28;19959;-68
2022/02/11 08:52:46;;;;;;;;;;;;;;;1.30;73.55;100162.53;5094686;28;20381;-69
2022/02/11 08:55:12;;;;;;;;;;;;;;;1.26;73.36;100171.59;5076792;28;20034;-65
2022/02/11 08:57:44;;;;;;;;;;;;;;;1.20;73.18;100166.81;5094130;28;20026;-66
2022/02/11 09:00:10;;;;;;;;;;;;;;;1.10;73.63;100168.47;5060143;28;19916;-67
2022/02/11 09:02:36;;;;;;;;;;;;;;;1.04;74.08;100168.94;5095097;28;19916;-68
2022/02/11 09:05:03;;;;;;;;;;;;;;;1.16;73.65;100174.09;5094913;28;20371;-67
2022/02/11 09:07:29;;;;;;;;;;;;;;;1.11;73.96;100172.75;5093811;28;19920;-70
2022/02/11 09:09:54;;;;;;;;;;;;;;;1.13;73.76;100183.97;5094803;28;20006;-69
2022/02/11 09:12:20;;;;;;;;;;;;;;;1.12;74.00;100184.91;5095321;28;19915;-65
2022/02/11 09:14:46;;;;;;;;;;;;;;;1.08;73.98;100188.72;5093323;28;19923;-66
2022/02/11 09:17:11;;;;;;;;;;;;;;;1.06;74.12;100183.59;5075754;28;19916;-72
2022/02/11 09:19:37;;;;;;;;;;;;;;;1.04;74.07;100187.28;5075545;28;19915;-67
2022/02/11 09:22:11;;;;;;;;;;;;;;;1.07;74.47;100189.69;5094427;28;19958;-72
2022/02/11 09:25:07;;;;;;;;;;;;;;;1.07;74.36;100192.31;5076842;28;19970;-73
2022/02/11 09:27:42;;;;;;;;;;;;;;;1.15;74.05;100198.63;5063228;28;19923;-76
2022/02/11 09:30:15;;;;;;;;;;;;;;;1.30;74.13;100201.06;5075141;28;19915;-74
2022/02/11 09:32:55;;;;;;;;;;;;;;;1.35;73.50;100193.66;5058186;28;19916;-73
2022/02/11 09:35:21;;;;;;;;;;;;;;;1.34;73.06;100205.94;5058138;28;19923;-70
2022/02/11 09:37:47;;;;;;;;;;;;;;;1.41;73.27;100212.38;5074891;28;19916;-72
2022/02/11 09:40:19;;;;;;;;;;;;;;;1.44;72.62;100206.91;5058495;28;19931;-73
2022/02/11 09:42:44;;;;;;;;;;;;;;;1.42;73.24;100211.44;5058281;28;20452;-68
2022/02/11 09:45:13;;;;;;;;;;;;;;;1.40;73.11;100218.59;5075427;28;19916;-70
2022/02/11 09:47:41;;;;;;;;;;;;;;;1.29;73.11;100213.34;5058732;28;19961;-68
2022/02/11 09:50:08;;;;;;;;;;;;;;;1.18;73.32;100221.19;5074569;28;19916;-69
2022/02/11 09:52:49;;;;;;;;;;;;;;;1.20;73.32;100220.13;5091864;28;20010;-72
2022/02/11 09:55:40;;;;;;;;;;;;;;;1.28;73.53;100216.91;5058537;28;20015;-72
2022/02/11 09:58:09;;;;;;;;;;;;;;;1.28;73.18;100216.91;5057652;28;19965;-69
2022/02/11 10:00:37;;;;;;;;;;;;;;;1.30;73.44;100215.00;5092750;28;19973;-69
2022/02/11 10:03:04;;;;;;;;;;;;;;;1.32;72.94;100218.34;5076131;28;19920;-68
2022/02/11 10:05:35;;;;;;;;;;;;;;;1.30;73.48;100222.88;5093009;28;19919;-68
2022/02/11 10:08:02;;;;;;;;;;;;;;;1.26;73.58;100213.56;5074386;28;19924;-70
2022/02/11 10:10:44;;;;;;;;;;;;;;;1.16;73.43;100217.84;5074179;28;19923;-71
2022/02/11 10:13:14;;;;;;;;;;;;;;;1.22;74.04;100225.25;5058118;28;19923;-69
2022/02/11 10:15:43;;;;;;;;;;;;;;;1.34;73.65;100218.22;5058547;28;19916;-69
2022/02/11 10:18:11;;;;;;;;;;;;;;;1.33;73.78;100217.41;5058274;28;19960;-75
2022/02/11 10:20:38;;;;;;;;;;;;;;;1.26;74.06;100228.47;5093443;28;19924;-66
2022/02/11 10:23:13;;;;;;;;;;;;;;;1.21;74.07;100234.06;5058355;28;19916;-68
2022/02/11 10:25:51;;;;;;;;;;;;;;;1.16;73.93;100229.19;5074360;28;19923;-71
2022/02/11 10:28:26;;;;;;;;;;;;;;;1.18;73.90;100229.91;5093322;28;19916;-67
2022/02/11 10:31:11;;;;;;;;;;;;;;;1.15;73.61;100230.09;5075160;28;19965;-68
2022/02/11 10:33:55;;;;;;;;;;;;;;;1.12;73.82;100240.00;5091346;28;19920;-70
2022/02/11 10:36:28;;;;;;;;;;;;;;;1.18;73.78;100247.41;5075135;28;20306;-62
2022/02/11 10:39:01;;;;;;;;;;;;;;;1.17;73.51;100235.25;5058383;28;19942;-66
2022/02/11 10:41:28;;;;;;;;;;;;;;;1.14;73.41;100235.47;5092818;28;19973;-71
2022/02/11 10:43:56;;;;;;;;;;;;;;;1.20;73.68;100240.28;5075223;28;20378;-70
2022/02/11 10:46:22;;;;;;;;;;;;;;;1.20;73.11;100246.34;5075953;28;19943;-69
2022/02/11 10:48:50;;;;;;;;;;;;;;;1.21;73.30;100242.78;5097950;28;19916;-72
2022/02/11 10:51:27;;;;;;;;;;;;;;;1.31;72.95;100240.28;5107045;28;19916;-73
2022/02/11 10:53:52;;;;;;;;;;;;;;;1.35;72.54;100244.34;5102211;28;19999;-68
2022/02/11 10:56:19;;;;;;;;;;;;;;;1.40;72.44;100246.63;5094317;28;19961;-70
2022/02/11 10:58:57;;;;;;;;;;;;;;;1.32;71.95;100239.34;5075100;28;19922;-75
2022/02/11 11:01:27;;;;;;;;;;;;;;;1.27;72.27;100257.22;5075504;28;19920;-72
2022/02/11 11:03:52;;;;;;;;;;;;;;;1.11;72.57;100251.44;5093165;28;19981;-75
2022/02/11 11:06:21;;;;;;;;;;;;;;;1.12;72.89;100240.81;5093571;28;20428;-75
2022/02/11 11:08:48;;;;;;;;;;;;;;;0.97;73.37;100249.84;5093908;28;19919;-74
2022/02/11 11:11:24;;;;;;;;;;;;;;;1.00;73.50;100246.16;5093834;28;19916;-72
2022/02/11 11:13:51;;;;;;;;;;;;;;;1.15;73.59;100247.63;5093881;28;19915;-69
2022/02/11 11:16:17;;;;;;;;;;;;;;;1.26;73.13;100258.16;5093943;28;20386;-68
2022/02/11 11:18:43;;;;;;;;;;;;;;;1.21;73.29;100239.31;5074842;28;19920;-72
2022/02/11 11:21:12;;;;;;;;;;;;;;;1.24;73.08;100246.97;5074874;28;19922;-71
2022/02/11 11:23:44;;;;;;;;;;;;;;;1.23;73.14;100258.41;5094084;28;19971;-70
2022/02/11 11:26:10;;;;;;;;;;;;;;;1.20;73.30;100245.53;5093760;28;19916;-73
2022/02/11 11:28:46;;;;;;;;;;;;;;;1.16;73.16;100260.66;5058906;28;19946;-67
2022/02/11 11:31:12;;;;;;;;;;;;;;;1.09;73.51;100248.94;5091537;28;20401;-67
2022/02/11 11:33:38;;;;;;;;;;;;;;;1.12;73.38;100248.69;5074709;28;19923;-74
2022/02/11 11:36:13;;;;;;;;;;;;;;;1.17;73.02;100259.69;5092195;28;19916;-72
2022/02/11 11:38:40;;;;;;;;;;;;;;;1.21;72.82;100257.69;5092163;28;20310;-69
2022/02/11 11:41:12;;;;;;;;;;;;;;;1.05;72.94;100260.59;5092239;28;19920;-71
2022/02/11 11:43:38;;;;;;;;;;;;;;;1.01;73.32;100255.69;5092106;28;19920;-74
2022/02/11 11:46:05;;;;;;;;;;;;;;;1.02;73.03;100278.34;5091919;28;19916;-71
2022/02/11 11:48:50;;;;;;;;;;;;;;;0.99;73.24;100273.34;5091794;28;19916;-72
2022/02/11 11:51:15;;;;;;;;;;;;;;;0.96;73.42;100270.94;5092151;28;19916;-69
2022/02/11 11:53:41;;;;;;;;;;;;;;;0.87;73.96;100268.06;5091726;28;20306;-72
2022/02/11 11:56:25;;;;;;;;;;;;;;;0.82;74.37;100285.03;5091616;28;20006;-69
2022/02/11 11:58:51;;;;;;;;;;;;;;;0.83;74.28;100282.31;5091343;28;19926;-70
2022/02/11 12:01:18;;;;;;;;;;;;;;;0.72;74.24;100277.03;5091541;28;19916;-71
2022/02/11 12:04:04;;;;;;;;;;;;;;;0.81;74.23;100286.84;5091745;28;19942;-72
2022/02/11 12:06:38;;;;;;;;;;;;;;;0.88;74.18;100290.69;5091355;28;19916;-70
2022/02/11 12:09:10;;;;;;;;;;;;;;;0.92;73.98;100299.19;5073877;28;19931;-71
2022/02/11 12:11:38;;;;;;;;;;;;;;;0.91;73.78;100298.34;5073930;28;20461;-70
2022/02/11 12:14:07;;;;;;;;;;;;;;;0.90;73.97;100290.59;5092154;28;20003;-70
2022/02/11 12:16:33;;;;;;;;;;;;;;;0.89;74.00;100295.00;5093330;28;19923;-70
2022/02/11 12:18:59;;;;;;;;;;;;;;;0.89;74.55;100289.75;5092624;28;19915;-69
2022/02/11 12:21:24;;;;;;;;;;;;;;;0.92;74.07;100297.38;5092664;28;19959;-72
2022/02/11 12:29:17;;;;;;;;;;;;;;;0.80;74.54;100302.66;5091491;28;20006;-66
2022/02/11 12:31:49;;;;;;;;;;;;;;;0.70;74.67;100299.06;5091329;28;20461;-67
2022/02/11 12:34:19;;;;;;;;;;;;;;;0.71;74.69;100313.84;5091766;28;20182;-67
2022/02/11 12:36:45;;;;;;;;;;;;;;;0.73;74.47;100323.25;5073322;28;19916;-66
2022/02/11 12:39:17;;;;;;;;;;;;;;;0.78;74.21;100323.75;5091455;28;19927;-66
2022/02/11 12:41:51;;;;;;;;;;;;;;;0.79;74.17;100320.19;5090691;28;19927;-67
2022/02/11 12:44:28;;;;;;;;;;;;;;;0.76;74.39;100319.56;5076690;28;19938;-71
2022/02/11 12:46:54;;;;;;;;;;;;;;;0.81;74.48;100312.22;5095384;28;19942;-66
2022/02/11 12:49:20;;;;;;;;;;;;;;;0.87;74.29;100317.88;5096688;28;19916;-66
2022/02/11 12:51:49;;;;;;;;;;;;;;;0.81;74.63;100323.53;5098138;28;19935;-64
2022/02/11 12:54:14;;;;;;;;;;;;;;;0.72;74.61;100318.97;5095403;28;19916;-62
2022/02/11 12:56:39;;;;;;;;;;;;;;;0.66;75.21;100322.03;5094946;28;19922;-62
2022/02/11 12:59:08;;;;;;;;;;;;;;;0.62;75.18;100328.44;5094698;28;19923;-63
2022/02/11 13:01:34;;;;;;;;;;;;;;;0.58;75.38;100332.22;5094624;28;19920;-67
2022/02/11 13:04:00;;;;;;;;;;;;;;;0.55;75.53;100333.25;5095578;28;19916;-61
2022/02/11 13:06:26;;;;;;;;;;;;;;;0.52;76.07;100332.63;5078742;28;19938;-60
2022/02/11 13:09:04;;;;;;;;;;;;;;;0.58;76.01;100334.84;5096362;28;19915;-63
2022/02/11 13:11:30;;;;;;;;;;;;;;;0.57;76.15;100336.59;5095853;28;19927;-62
2022/02/11 13:14:14;;;;;;;;;;;;;;;0.51;76.21;100342.28;5093934;28;20287;-62
2022/02/11 13:16:39;;;;;;;;;;;;;;;0.46;76.95;100341.78;5094220;28;20324;-62
2022/02/11 13:19:23;;;;;;;;;;;;;;;0.47;76.71;100345.25;5076784;28;19961;-62
2022/02/11 13:21:48;;;;;;;;;;;;;;;0.51;76.49;100346.69;5094579;28;19916;-62
2022/02/11 13:24:14;;;;;;;;;;;;;;;0.45;76.70;100349.75;5094383;28;19915;-62
2022/02/11 13:26:40;;;;;;;;;;;;;;;0.47;76.75;100353.09;5094383;28;19920;-62
2022/02/11 13:29:12;;;;;;;;;;;;;;;0.51;76.43;100354.56;5094239;28;19930;-61
2022/02/11 13:31:48;;;;;;;;;;;;;;;0.51;76.26;100357.16;5075721;28;19916;-61
2022/02/11 13:34:14;;;;;;;;;;;;;;;0.49;75.40;100359.06;5093914;28;19920;-60
2022/02/11 13:36:40;;;;;;;;;;;;;;;0.46;75.59;100354.03;5093700;28;19916;-62
2022/02/11 13:39:07;;;;;;;;;;;;;;;0.44;75.12;100361.19;5093943;28;19920;-62
2022/02/11 13:41:38;;;;;;;;;;;;;;;0.47;74.90;100363.56;5094338;28;19920;-59
2022/02/11 13:44:09;;;;;;;;;;;;;;;0.52;75.22;100374.56;5075955;28;19938;-62
2022/02/11 13:46:38;;;;;;;;;;;;;;;0.48;75.03;100367.88;5094094;28;19916;-62
2022/02/11 13:49:04;;;;;;;;;;;;;;;0.43;74.98;100369.97;5093870;28;19919;-62
2022/02/11 13:51:32;;;;;;;;;;;;;;;0.42;75.07;100368.31;5075238;28;19922;-64
2022/02/11 13:54:08;;;;;;;;;;;;;;;0.32;74.76;100378.59;5074753;28;19916;-60
2022/02/11 13:56:34;;;;;;;;;;;;;;;0.27;75.35;100380.69;5093969;28;19920;-60
2022/02/11 13:59:01;;;;;;;;;;;;;;;0.19;74.87;100378.59;5093757;28;19923;-64
2022/02/11 14:01:30;;;;;;;;;;;;;;;0.12;75.29;100393.06;5094381;28;20306;-63
2022/02/11 14:03:59;;;;;;;;;;;;;;;0.15;75.24;100377.13;5093615;28;19916;-63
2022/02/11 14:06:25;;;;;;;;;;;;;;;0.15;75.35;100381.53;5093813;28;20000;-62
2022/02/11 14:08:50;;;;;;;;;;;;;;;0.15;75.08;100377.13;5093759;28;19969;-62
2022/02/11 14:11:19;;;;;;;;;;;;;;;0.14;74.86;100378.06;5093626;28;19962;-62
2022/02/11 14:13:46;;;;;;;;;;;;;;;0.10;74.78;100389.72;5093438;28;19920;-63
2022/02/11 14:16:11;;;;;;;;;;;;;;;0.10;75.25;100389.72;5093363;28;19950;-62
2022/02/11 14:18:41;;;;;;;;;;;;;;;0.13;75.55;100399.13;5074979;28;19941;-62
2022/02/11 14:21:10;;;;;;;;;;;;;;;0.11;75.60;100395.78;5093243;28;19916;-60
2022/02/11 14:23:35;;;;;;;;;;;;;;;0.10;75.50;100399.34;5092780;28;19939;-65
2022/02/11 14:26:01;;;;;;;;;;;;;;;0.09;74.98;100392.44;5093294;28;19920;-59
2022/02/11 14:28:28;;;;;;;;;;;;;;;0.07;74.95;100397.78;5093147;28;19969;-62
2022/02/11 14:30:56;;;;;;;;;;;;;;;0.04;74.67;100390.13;5092855;28;19920;-63
2022/02/11 14:33:21;;;;;;;;;;;;;;;0.01;74.21;100392.13;5093483;28;19916;-62
2022/02/11 14:35:46;;;;;;;;;;;;;;;-0.10;74.64;100392.84;5091873;28;19915;-62
2022/02/11 14:38:12;;;;;;;;;;;;;;;-0.13;74.84;100387.81;5093202;28;20409;-64
2022/02/11 14:43:26;;;;;;;;;;;;;;;-0.10;75.27;100404.13;5052354;28;20038;-60
2022/02/11 14:45:52;;;;;;;;;;;;;;;-0.14;74.51;100409.69;5050849;28;19944;-62
2022/02/11 14:48:17;;;;;;;;;;;;;;;-0.17;74.84;100409.91;5034892;28;20010;-61
2022/02/11 14:50:43;;;;;;;;;;;;;;;-0.20;75.03;100420.56;5072462;28;19920;-63
2022/02/11 14:53:09;;;;;;;;;;;;;;;-0.25;74.85;100414.81;5072379;28;19916;-64
2022/02/11 14:55:34;;;;;;;;;;;;;;;-0.31;75.34;100431.72;5072253;28;19917;-61
2022/02/11 14:58:01;;;;;;;;;;;;;;;-0.38;74.51;100423.47;5072353;28;19923;-62
2022/02/11 15:00:26;;;;;;;;;;;;;;;-0.41;74.41;100421.03;5072785;28;19952;-65
2022/02/11 15:02:52;;;;;;;;;;;;;;;-0.43;74.53;100433.41;5072685;28;19916;-63
2022/02/11 15:05:17;;;;;;;;;;;;;;;-0.41;74.82;100439.38;5072057;28;19920;-64
2022/02/11 15:07:44;;;;;;;;;;;;;;;-0.43;74.26;100438.63;5034271;28;19921;-64
2022/02/11 15:10:10;;;;;;;;;;;;;;;-0.43;74.68;100435.16;5034652;28;20376;-65
2022/02/11 15:12:35;;;;;;;;;;;;;;;-0.41;74.83;100436.75;5053638;28;20023;-64
2022/02/11 15:15:02;;;;;;;;;;;;;;;-0.48;74.88;100445.94;5072678;28;19924;-61
2022/02/11 15:17:29;;;;;;;;;;;;;;;-0.58;75.59;100438.78;5052548;28;20007;-64
2022/02/11 15:19:55;;;;;;;;;;;;;;;-0.64;75.70;100453.09;5072410;28;19970;-65
2022/02/11 15:22:20;;;;;;;;;;;;;;;-0.63;75.45;100452.16;5067875;28;19951;-63
2022/02/11 15:24:48;;;;;;;;;;;;;;;-0.61;75.83;100458.13;5052453;28;19974;-65
2022/02/11 15:27:14;;;;;;;;;;;;;;;-0.57;75.68;100453.56;5052091;28;20221;-62
2022/02/11 15:29:40;;;;;;;;;;;;;;;-0.51;76.09;100464.44;5033424;28;19916;-62
2022/02/11 15:32:06;;;;;;;;;;;;;;;-0.47;76.11;100465.94;5065099;28;19972;-69
2022/02/11 15:34:31;;;;;;;;;;;;;;;-0.46;75.71;100467.59;5071289;28;19917;-66
2022/02/11 15:36:57;;;;;;;;;;;;;;;-0.47;76.11;100468.53;5050674;28;19931;-65
2022/02/11 15:39:23;;;;;;;;;;;;;;;-0.44;75.93;100476.19;5068530;28;19966;-67
2022/02/11 15:41:54;;;;;;;;;;;;;;;-0.45;76.01;100484.16;5034568;28;20054;-62
2022/02/11 15:44:19;;;;;;;;;;;;;;;-0.52;76.29;100486.31;5068839;28;19920;-64
2022/02/11 15:46:46;;;;;;;;;;;;;;;-0.48;76.23;100490.41;5071982;28;19969;-65
2022/02/11 15:49:12;;;;;;;;;;;;;;;-0.51;75.76;100493.22;5072100;28;19923;-63
2022/02/11 15:51:37;;;;;;;;;;;;;;;-0.57;74.62;100495.41;5071967;28;20032;-67
2022/02/11 15:54:03;;;;;;;;;;;;;;;-0.64;75.07;100492.31;5050046;28;20402;-67
2022/02/11 15:56:29;;;;;;;;;;;;;;;-0.69;74.89;100497.00;5066754;28;20002;-69
2022/02/11 15:58:54;;;;;;;;;;;;;;;-0.68;75.46;100491.69;5040874;28;20376;-72
2022/02/11 16:01:20;;;;;;;;;;;;;;;-0.73;74.83;100508.59;5059620;28;19916;-67
2022/02/11 16:03:46;;;;;;;;;;;;;;;-0.75;75.35;100498.25;5031190;28;20380;-73
2022/02/11 16:06:14;;;;;;;;;;;;;;;-0.70;75.38;100500.56;5020057;28;20273;-70
2022/02/11 16:08:40;;;;;;;;;;;;;;;-0.71;75.02;100504.94;5041529;28;19963;-71
2022/02/11 16:11:09;;;;;;;;;;;;;;;-0.78;74.66;100501.06;5057089;28;20345;-71
2022/02/11 16:13:35;;;;;;;;;;;;;;;-0.82;74.91;100493.50;5040820;28;19944;-73
2022/02/11 16:16:25;;;;;;;;;;;;;;;-0.89;75.40;100498.25;5042574;28;19971;-74
2022/02/11 16:18:51;;;;;;;;;;;;;;;-0.89;75.39;100515.72;5068857;28;19920;-71
2022/02/11 16:21:16;;;;;;;;;;;;;;;-0.89;75.24;100505.25;5061755;28;19920;-76
2022/02/11 16:23:48;;;;;;;;;;;;;;;-0.99;74.84;100503.22;5042050;28;19960;-78
2022/02/11 16:26:13;;;;;;;;;;;;;;;-1.03;75.38;100506.13;5060513;28;19921;-73
2022/02/11 16:28:39;;;;;;;;;;;;;;;-1.07;75.55;100504.66;5056202;28;19923;-71
2022/02/11 16:31:21;;;;;;;;;;;;;;;-1.17;75.65;100520.03;5046542;28;19916;-71
2022/02/11 16:33:47;;;;;;;;;;;;;;;-1.23;75.85;100524.78;5046853;28;19974;-71
2022/02/11 16:36:13;;;;;;;;;;;;;;;-1.32;76.22;100516.59;5054661;28;20042;-73
2022/02/11 16:38:42;;;;;;;;;;;;;;;-1.37;76.28;100517.81;5041048;28;19916;-71
2022/02/11 16:41:08;;;;;;;;;;;;;;;-1.45;76.30;100517.41;5095737;28;20011;-69
2022/02/11 16:43:34;;;;;;;;;;;;;;;-1.52;76.40;100523.94;5097086;28;19923;-66
2022/02/11 16:45:59;;;;;;;;;;;;;;;-1.54;75.93;100526.63;5076989;28;19960;-73
2022/02/11 16:48:25;;;;;;;;;;;;;;;-1.57;76.76;100522.44;5076632;28;19922;-76
2022/02/11 16:50:50;;;;;;;;;;;;;;;-1.62;76.17;100534.94;5094858;28;19916;-68